createdAt,value
2023-04-28T09:32:14.763Z,2.67
2023-04-28T09:35:16.446Z,2.47
2023-04-28T09:38:19.750Z,2.42
2023-04-28T09:41:24.306Z,2.53
2023-04-28T09:44:25.799Z,2.80
2023-04-28T09:47:27.394Z,2.45
2023-04-28T09:50:42.487Z,2.70
2023-04-28T09:53:44.204Z,2.20
2023-04-28T09:56:47.482Z,1.98
2023-04-28T09:59:51.537Z,2.95
2023-04-28T10:02:53.430Z,2.30
2023-04-28T10:05:57.497Z,2.00
2023-04-28T10:09:00.381Z,2.20
2023-04-28T10:12:03.175Z,2.40
2023-04-28T10:15:05.333Z,2.35
2023-04-28T10:18:08.656Z,2.10
2023-04-28T10:21:18.530Z,1.90
2023-04-28T10:24:29.229Z,2.10
2023-04-28T10:30:33.863Z,1.95
2023-04-28T10:33:35.487Z,2.05
2023-04-28T10:36:54.968Z,2.20
2023-04-28T10:40:34.491Z,1.80
2023-04-28T10:43:39.264Z,1.90
2023-04-28T10:47:06.736Z,2.10
2023-04-28T10:50:09.227Z,2.42
2023-04-28T10:53:10.794Z,2.10
2023-04-28T10:56:21.523Z,1.92
2023-04-28T10:59:28.107Z,2.30
2023-04-28T11:02:37.408Z,1.80
2023-04-28T11:05:39.625Z,2.08
2023-04-28T11:08:41.167Z,1.85
2023-04-28T11:11:54.441Z,1.88
2023-04-28T11:14:55.911Z,1.77
2023-04-28T11:17:59.303Z,2.03
2023-04-28T11:21:01.582Z,1.80
2023-04-28T11:24:09.011Z,1.58
2023-04-28T11:27:10.613Z,2.10
2023-04-28T11:30:26.497Z,2.10
2023-04-28T11:33:28.061Z,2.20
2023-04-28T11:36:35.352Z,2.20
2023-04-28T11:39:37.171Z,1.90
2023-04-28T11:42:48.429Z,2.20
2023-04-28T11:45:50.018Z,2.00
2023-04-28T11:49:06.482Z,2.22
2023-04-28T11:52:10.244Z,1.88
2023-04-28T11:55:16.709Z,1.92
2023-04-28T11:58:22.165Z,2.08
2023-04-28T12:01:23.614Z,2.40
2023-04-28T12:04:28.157Z,3.00
2023-04-28T12:07:29.946Z,3.03
2023-04-28T12:10:31.417Z,2.53
2023-04-28T12:13:32.937Z,2.50
2023-04-28T12:16:44.019Z,2.70
2023-04-28T12:19:45.812Z,2.58
2023-04-28T12:22:49.177Z,2.50
2023-04-28T12:25:50.718Z,2.50
2023-04-28T12:28:52.572Z,2.22
2023-04-28T12:31:54.448Z,2.00
2023-04-28T12:34:55.882Z,2.70
2023-04-28T12:37:58.838Z,2.38
2023-04-28T12:41:00.584Z,2.08
2023-04-28T12:44:02.094Z,2.00
2023-04-28T12:47:08.270Z,1.98
2023-04-28T12:50:10.135Z,1.90
2023-04-28T12:53:11.985Z,2.30
2023-04-28T12:56:13.465Z,1.95
2023-04-28T12:59:15.007Z,1.77
2023-04-28T13:02:16.507Z,2.25
2023-04-28T13:05:19.439Z,1.90
2023-04-28T13:08:21.466Z,2.10
2023-04-28T13:11:24.796Z,2.00
2023-04-28T13:14:28.015Z,1.75
2023-04-28T13:17:30.054Z,2.08
2023-04-28T13:20:31.535Z,2.00
2023-04-28T13:23:33.094Z,2.35
2023-04-28T13:26:34.797Z,2.35
2023-04-28T13:29:36.911Z,1.95
2023-04-28T13:32:38.451Z,1.83
2023-04-28T13:35:40.429Z,1.73
2023-04-28T13:38:42.032Z,2.05
2023-04-28T13:41:43.544Z,2.15
2023-04-28T13:44:46.690Z,2.40
2023-04-28T13:47:48.866Z,2.22
2023-04-28T13:50:50.448Z,2.03
2023-04-28T13:53:51.980Z,2.22
2023-04-28T13:56:53.605Z,2.33
2023-04-28T13:59:55.093Z,2.53
2023-04-28T14:02:56.933Z,2.10
2023-04-28T14:05:58.772Z,2.45
2023-04-28T14:09:01.127Z,2.38
2023-04-28T14:12:02.856Z,2.53
2023-04-28T14:15:07.906Z,2.45
2023-04-28T14:18:09.513Z,2.38
2023-04-28T14:21:11.286Z,2.63
2023-04-28T14:24:12.947Z,2.03
2023-04-28T14:27:15.077Z,2.00
2023-04-28T14:30:17.266Z,2.10
2023-04-28T14:33:18.759Z,2.33
2023-04-28T14:36:20.620Z,2.17
2023-04-28T14:39:22.890Z,2.20
2023-04-28T14:42:32.825Z,2.72
2023-04-28T14:45:36.346Z,2.17
2023-04-28T14:48:38.074Z,5.25
2023-04-28T14:51:39.664Z,2.33
2023-04-28T14:54:41.186Z,2.28
2023-04-28T14:57:42.828Z,2.25
2023-04-28T15:00:44.692Z,2.20
2023-04-28T15:03:46.474Z,2.28
2023-04-28T15:06:48.084Z,1.90
2023-04-28T15:09:50.206Z,2.10
2023-04-28T15:12:51.837Z,2.92
2023-04-28T15:15:53.316Z,1.90
2023-04-28T15:18:54.836Z,2.38
2023-04-28T15:21:56.480Z,2.50
2023-04-28T15:24:58.002Z,2.63
2023-04-28T15:28:00.261Z,2.38
2023-04-28T15:31:02.147Z,3.08
2023-04-28T15:34:03.681Z,2.38
2023-04-28T15:37:37.224Z,1.92
2023-04-28T15:40:40.529Z,1.92
2023-04-28T15:43:42.840Z,1.98
2023-04-28T15:46:44.904Z,2.00
2023-04-28T15:49:46.667Z,2.10
2023-04-28T15:52:49.637Z,4.75
2023-04-28T15:55:51.602Z,9.25
2023-04-28T15:58:53.350Z,9.20
2023-04-28T16:01:56.100Z,7.90
2023-04-28T16:04:58.360Z,7.45
2023-04-28T16:07:59.995Z,6.60
2023-04-28T16:11:03.706Z,6.85
2023-04-28T16:14:05.252Z,10.77
2023-04-28T16:17:07.067Z,9.45
2023-04-28T16:20:10.192Z,6.90
2023-04-28T16:23:13.876Z,7.00
2023-04-28T16:26:15.978Z,6.85
2023-04-28T16:29:17.535Z,6.90
2023-04-28T16:32:19.069Z,6.65
2023-04-28T16:35:21.621Z,6.75
2023-04-28T16:38:23.121Z,6.40
2023-04-28T16:41:24.790Z,6.18
2023-04-28T16:44:28.550Z,6.35
2023-04-28T16:47:31.243Z,6.65
2023-04-28T16:50:33.045Z,6.00
2023-04-28T16:53:35.002Z,6.28
2023-04-28T16:56:38.916Z,6.00
2023-04-28T16:59:40.536Z,5.95
2023-04-28T17:02:42.229Z,6.00
2023-04-28T17:05:44.281Z,5.63
2023-04-28T17:08:45.827Z,5.88
2023-04-28T17:11:47.634Z,5.35
2023-04-28T17:14:50.895Z,5.93
2023-04-28T17:17:52.605Z,5.95
2023-04-28T17:20:54.726Z,6.45
2023-04-28T17:23:59.819Z,6.00
2023-04-28T17:27:01.672Z,6.82
2023-04-28T17:30:03.821Z,5.43
2023-04-28T17:33:05.408Z,7.22
2023-04-28T17:36:07.067Z,6.40
2023-04-28T17:39:09.455Z,6.25
2023-04-28T17:42:10.964Z,6.00
2023-04-28T17:45:12.536Z,6.20
2023-04-28T17:48:14.512Z,6.43
2023-04-28T17:51:15.998Z,5.70
2023-04-28T17:54:17.930Z,5.75
2023-04-28T17:57:19.353Z,5.82
2023-04-28T18:00:20.961Z,5.70
2023-04-28T18:03:22.612Z,5.55
2023-04-28T18:06:24.176Z,5.90
2023-04-28T18:09:27.054Z,5.90
2023-04-28T18:12:29.718Z,5.70
2023-04-28T18:15:31.366Z,6.32
2023-04-28T18:18:35.390Z,5.93
2023-04-28T18:21:37.717Z,6.03
2023-04-28T18:24:39.286Z,5.68
2023-04-28T18:27:40.776Z,5.65
2023-04-28T18:30:42.226Z,5.63
2023-04-28T18:33:44.668Z,6.20
2023-04-28T18:36:46.180Z,5.18
2023-04-28T18:39:47.676Z,5.30
2023-04-28T18:42:49.658Z,5.60
2023-04-28T18:45:51.539Z,5.78
2023-04-28T18:48:53.393Z,5.65
2023-04-28T18:51:54.925Z,5.40
2023-04-28T18:54:56.463Z,5.90
2023-04-28T18:57:57.954Z,6.30
2023-04-28T19:00:59.543Z,5.10
2023-04-28T19:04:01.166Z,5.35
2023-04-28T19:07:02.858Z,5.43
2023-04-28T19:10:05.913Z,5.95
2023-04-28T19:13:07.886Z,4.90
2023-04-28T19:16:09.577Z,4.80
2023-04-28T19:19:11.165Z,5.32
2023-04-28T19:22:41.277Z,5.10
2023-04-28T19:25:43.256Z,5.28
2023-04-28T19:28:44.888Z,4.50
2023-04-28T19:31:46.421Z,4.80
2023-04-28T19:34:48.471Z,5.15
2023-04-28T19:37:50.422Z,4.93
2023-04-28T19:41:01.410Z,4.40
2023-04-28T19:44:03.356Z,4.95
2023-04-28T19:47:06.204Z,4.72
2023-04-28T19:50:09.708Z,5.35
2023-04-28T19:53:11.353Z,4.43
2023-04-28T19:56:12.882Z,4.75
2023-04-28T19:59:14.417Z,3.97
2023-04-28T20:02:16.512Z,4.00
2023-04-28T20:05:20.347Z,4.50
2023-04-28T20:08:24.196Z,4.40
2023-04-28T20:11:25.781Z,4.10
2023-04-28T20:14:27.688Z,3.88
2023-04-28T20:17:29.242Z,4.40
2023-04-28T20:20:30.761Z,4.43
2023-04-28T20:23:32.247Z,4.50
2023-04-28T20:26:33.980Z,3.75
2023-04-28T20:29:36.510Z,4.20
2023-04-28T20:32:38.388Z,4.10
2023-04-28T20:35:39.917Z,4.07
2023-04-28T20:38:43.293Z,4.03
2023-04-28T20:41:47.779Z,4.20
2023-04-28T20:44:50.800Z,4.30
2023-04-28T20:47:53.108Z,4.05
2023-04-28T20:50:56.607Z,4.13
2023-04-28T20:53:58.125Z,3.97
2023-04-28T20:57:00.655Z,4.10
2023-04-28T21:00:02.130Z,3.80
2023-04-28T21:03:04.735Z,3.80
2023-04-28T21:06:06.834Z,4.18
2023-04-28T21:09:08.330Z,3.85
2023-04-28T21:12:09.883Z,3.50
2023-04-28T21:15:11.640Z,3.58
2023-04-28T21:18:13.104Z,3.75
2023-04-28T21:21:15.234Z,3.45
2023-04-28T21:24:16.740Z,3.90
2023-04-28T21:27:18.322Z,4.32
2023-04-28T21:30:20.711Z,3.67
2023-04-28T21:33:22.312Z,3.65
2023-04-28T21:36:23.849Z,3.90
2023-04-28T21:39:26.351Z,3.58
2023-04-28T21:42:31.607Z,3.90
2023-04-28T21:45:33.840Z,3.97
2023-04-28T21:48:37.350Z,3.90
2023-04-28T21:51:42.088Z,3.67
2023-04-28T21:54:43.577Z,3.60
2023-04-28T21:57:45.017Z,3.83
2023-04-28T22:00:47.048Z,3.75
2023-04-28T22:03:48.860Z,3.40
2023-04-28T22:06:50.459Z,3.65
2023-04-28T22:09:52.409Z,3.33
2023-04-28T22:12:57.007Z,3.65
2023-04-28T22:15:59.235Z,3.80
2023-04-28T22:19:00.936Z,3.85
2023-04-28T22:22:02.690Z,3.60
2023-04-28T22:25:04.587Z,3.55
2023-04-28T22:28:06.103Z,3.50
2023-04-28T22:31:07.707Z,3.20
2023-04-28T22:34:10.281Z,3.58
2023-04-28T22:37:11.902Z,3.67
2023-04-28T22:40:13.514Z,3.40
2023-04-28T22:43:15.000Z,3.33
2023-04-28T22:46:16.673Z,3.70
2023-04-28T22:49:21.013Z,3.20
2023-04-28T22:52:23.279Z,3.47
2023-04-28T22:55:24.753Z,3.20
2023-04-28T22:58:26.240Z,3.70
2023-04-28T23:01:27.792Z,3.47
2023-04-28T23:04:30.209Z,3.20
2023-04-28T23:07:31.947Z,3.80
2023-04-28T23:10:33.483Z,3.30
2023-04-28T23:13:35.305Z,2.80
2023-04-28T23:16:37.183Z,3.30
2023-04-28T23:19:39.134Z,3.05
2023-04-28T23:22:40.925Z,2.70
2023-04-28T23:25:45.416Z,3.17
2023-04-28T23:28:47.597Z,2.95
2023-04-28T23:31:54.317Z,2.95
2023-04-28T23:34:55.906Z,2.65
2023-04-28T23:37:57.386Z,2.70
2023-04-28T23:40:58.897Z,2.63
2023-04-28T23:44:00.342Z,2.92
2023-04-28T23:47:02.348Z,2.60
2023-04-28T23:50:04.829Z,3.00
2023-04-28T23:53:06.557Z,3.17
2023-04-28T23:56:08.580Z,3.22
2023-04-28T23:59:10.058Z,2.90
